createdAt,value
2017-12-02T00:01:20.991Z,27.77
2017-12-02T00:03:48.520Z,41.07
2017-12-02T00:06:15.988Z,29.17
2017-12-02T00:08:43.460Z,29.27
2017-12-02T00:11:10.951Z,28.60
2017-12-02T00:13:39.192Z,29.30
2017-12-02T00:16:06.701Z,29.90
2017-12-02T00:18:34.188Z,28.77
2017-12-02T00:21:01.735Z,30.57
2017-12-02T00:23:29.208Z,29.67
2017-12-02T00:25:56.674Z,33.63
2017-12-02T00:28:24.160Z,30.47
2017-12-02T00:30:53.463Z,31.00
2017-12-02T00:33:21.715Z,32.07
2017-12-02T00:35:49.187Z,32.57
2017-12-02T00:38:16.686Z,32.30
2017-12-02T00:40:44.170Z,34.13
2017-12-02T00:43:11.646Z,32.87
2017-12-02T00:45:39.139Z,31.00
2017-12-02T00:48:07.380Z,32.43
2017-12-02T00:50:34.858Z,32.13
2017-12-02T00:53:03.127Z,33.80
2017-12-02T00:55:30.614Z,33.03
2017-12-02T00:57:58.854Z,33.03
2017-12-02T01:00:26.324Z,34.13
2017-12-02T01:02:54.591Z,35.07
2017-12-02T01:05:22.069Z,35.63
2017-12-02T01:07:50.318Z,35.50
2017-12-02T01:10:17.791Z,34.33
2017-12-02T01:12:45.367Z,34.17
2017-12-02T01:15:13.621Z,35.27
2017-12-02T01:17:41.119Z,33.90
2017-12-02T01:20:08.622Z,36.40
2017-12-02T01:22:36.095Z,34.47
2017-12-02T01:25:03.583Z,33.97
2017-12-02T01:27:31.828Z,35.30
2017-12-02T01:29:59.327Z,32.70
2017-12-02T01:32:26.818Z,33.70
2017-12-02T01:34:54.349Z,35.13
2017-12-02T01:37:22.608Z,34.30
2017-12-02T01:39:50.847Z,31.00
2017-12-02T01:42:18.337Z,32.87
2017-12-02T01:44:46.575Z,32.57
2017-12-02T01:47:14.080Z,34.00
2017-12-02T01:49:42.318Z,34.10
2017-12-02T01:52:09.795Z,35.37
2017-12-02T01:54:37.276Z,33.77
2017-12-02T01:57:05.513Z,32.83
2017-12-02T01:59:32.991Z,33.00
2017-12-02T02:02:00.465Z,33.40
2017-12-02T02:04:28.751Z,34.33
2017-12-02T02:06:56.247Z,33.87
2017-12-02T02:09:23.716Z,34.50
2017-12-02T02:11:51.221Z,32.17
2017-12-02T02:14:19.468Z,34.60
2017-12-02T02:16:47.808Z,33.97
2017-12-02T02:19:15.297Z,30.77
2017-12-02T02:21:42.793Z,29.43
2017-12-02T02:24:11.031Z,29.57
2017-12-02T02:26:38.507Z,32.07
2017-12-02T02:29:06.101Z,30.03
2017-12-02T02:31:33.623Z,30.47
2017-12-02T02:34:01.192Z,29.60
2017-12-02T02:36:29.430Z,29.13
2017-12-02T02:38:56.934Z,28.23
2017-12-02T02:41:25.183Z,29.80
2017-12-02T02:43:52.660Z,30.07
2017-12-02T02:46:20.919Z,28.57
2017-12-02T02:48:48.391Z,31.00
2017-12-02T02:51:16.650Z,31.57
2017-12-02T02:53:44.128Z,33.30
2017-12-02T02:56:13.399Z,32.93
2017-12-02T02:58:40.884Z,31.83
2017-12-02T03:01:08.364Z,31.17
2017-12-02T03:03:35.866Z,31.17
2017-12-02T03:06:03.358Z,31.73
2017-12-02T03:08:31.618Z,32.00
2017-12-02T03:10:59.103Z,31.07
2017-12-02T03:13:27.393Z,31.07
2017-12-02T03:15:54.891Z,33.90
2017-12-02T03:18:22.376Z,32.70
2017-12-02T03:20:49.887Z,32.87
2017-12-02T03:23:17.359Z,32.17
2017-12-02T03:25:44.869Z,33.03
2017-12-02T03:28:13.103Z,31.27
2017-12-02T03:30:40.576Z,31.63
2017-12-02T03:33:08.063Z,32.27
2017-12-02T03:35:36.307Z,32.93
2017-12-02T03:38:03.844Z,31.63
2017-12-02T03:40:31.317Z,30.57
2017-12-02T03:42:58.783Z,28.97
2017-12-02T03:45:26.266Z,29.87
2017-12-02T03:47:54.504Z,28.10
2017-12-02T03:50:22.007Z,28.30
2017-12-02T03:52:50.248Z,28.30
2017-12-02T03:55:18.552Z,28.00
2017-12-02T03:57:46.824Z,28.67
2017-12-02T04:00:14.311Z,30.83
2017-12-02T04:02:41.844Z,30.50
2017-12-02T04:05:10.095Z,29.97
2017-12-02T04:07:37.575Z,29.37
2017-12-02T04:10:05.068Z,32.37
2017-12-02T04:12:32.552Z,29.77
2017-12-02T04:15:00.051Z,30.30
2017-12-02T04:17:27.519Z,30.27
2017-12-02T04:19:55.759Z,30.80
2017-12-02T04:22:23.247Z,31.70
2017-12-02T04:24:50.725Z,30.67
2017-12-02T04:27:18.979Z,31.17
2017-12-02T04:29:46.455Z,30.40
2017-12-02T04:32:14.691Z,29.57
2017-12-02T04:34:42.175Z,30.60
2017-12-02T04:37:10.431Z,32.30
2017-12-02T04:39:37.994Z,30.80
2017-12-02T04:42:05.432Z,31.20
2017-12-02T04:44:32.911Z,31.07
2017-12-02T04:47:00.418Z,32.10
2017-12-02T04:49:27.907Z,32.90
2017-12-02T04:51:55.394Z,31.50
2017-12-02T04:54:22.878Z,31.07
2017-12-02T04:56:51.140Z,32.10
2017-12-02T04:59:19.515Z,31.00
2017-12-02T05:01:47.763Z,32.00
2017-12-02T05:04:15.255Z,30.73
2017-12-02T05:06:44.413Z,31.13
2017-12-02T05:09:11.887Z,31.67
2017-12-02T05:11:40.187Z,30.90
2017-12-02T05:14:08.427Z,32.30
2017-12-02T05:16:36.059Z,31.90
2017-12-02T05:19:03.547Z,32.43
2017-12-02T05:21:31.023Z,31.70
2017-12-02T05:23:59.307Z,32.60
2017-12-02T05:26:27.591Z,32.53
2017-12-02T05:28:55.864Z,31.87
2017-12-02T05:31:23.344Z,32.60
2017-12-02T05:33:51.598Z,33.50
2017-12-02T05:36:19.863Z,32.80
2017-12-02T05:38:47.343Z,32.93
2017-12-02T05:41:15.609Z,34.17
2017-12-02T05:43:43.079Z,32.80
2017-12-02T05:46:11.323Z,32.87
2017-12-02T05:48:38.808Z,31.83
2017-12-02T05:51:07.053Z,33.87
2017-12-02T05:53:34.548Z,31.80
2017-12-02T05:56:02.779Z,32.97
2017-12-02T05:58:30.264Z,30.90
2017-12-02T06:00:57.782Z,31.63
2017-12-02T06:03:26.264Z,30.90
2017-12-02T06:05:54.779Z,30.57
2017-12-02T06:08:23.763Z,32.40
2017-12-02T06:10:51.239Z,30.00
2017-12-02T06:13:18.725Z,31.90
2017-12-02T06:15:46.963Z,31.70
2017-12-02T06:18:14.455Z,33.13
2017-12-02T06:20:41.950Z,33.40
2017-12-02T06:23:10.443Z,32.67
2017-12-02T06:25:37.918Z,33.40
2017-12-02T06:28:05.391Z,31.80
2017-12-02T06:30:32.883Z,31.73
2017-12-02T06:33:00.371Z,31.87
2017-12-02T06:35:27.844Z,33.43
2017-12-02T06:37:55.335Z,34.63
2017-12-02T06:40:23.579Z,35.07
2017-12-02T06:42:51.076Z,33.90
2017-12-02T06:45:19.319Z,35.40
2017-12-02T06:47:46.799Z,34.40
2017-12-02T06:50:15.073Z,33.47
2017-12-02T06:52:42.538Z,33.10
2017-12-02T06:55:10.822Z,33.50
2017-12-02T06:57:39.055Z,33.40
2017-12-02T07:00:06.523Z,33.80
2017-12-02T07:02:34.016Z,33.10
2017-12-02T07:05:02.251Z,36.27
2017-12-02T07:07:29.751Z,32.97
2017-12-02T07:09:58.000Z,35.23
2017-12-02T07:12:26.329Z,35.80
2017-12-02T07:14:53.815Z,33.60
2017-12-02T07:17:21.287Z,35.67
2017-12-02T07:19:48.822Z,34.43
2017-12-02T07:22:16.367Z,34.80
2017-12-02T07:24:43.846Z,33.17
2017-12-02T07:27:11.338Z,33.57
2017-12-02T07:29:38.806Z,33.60
2017-12-02T07:32:07.091Z,34.30
2017-12-02T07:34:35.318Z,37.33
2017-12-02T07:37:02.790Z,36.27
2017-12-02T07:39:30.278Z,34.17
2017-12-02T07:41:58.518Z,35.17
2017-12-02T07:44:26.008Z,34.47
2017-12-02T07:46:54.243Z,33.33
2017-12-02T07:49:21.735Z,34.43
2017-12-02T07:51:49.243Z,32.90
2017-12-02T07:54:16.723Z,35.90
2017-12-02T07:56:44.235Z,35.40
2017-12-02T07:59:12.467Z,35.07
2017-12-02T08:01:39.943Z,36.50
2017-12-02T08:04:07.419Z,35.03
2017-12-02T08:06:35.661Z,35.20
2017-12-02T08:09:03.167Z,34.30
2017-12-02T08:11:30.659Z,32.77
2017-12-02T08:13:58.127Z,35.90
2017-12-02T08:16:25.615Z,35.47
2017-12-02T08:18:53.851Z,37.10
2017-12-02T08:21:21.351Z,32.77
2017-12-02T08:23:49.587Z,34.80
2017-12-02T08:26:17.066Z,33.93
2017-12-02T08:28:44.548Z,36.70
2017-12-02T08:31:12.787Z,34.93
2017-12-02T08:33:40.285Z,33.17
2017-12-02T08:36:08.536Z,35.43
2017-12-02T08:38:37.507Z,35.27
2017-12-02T08:41:04.992Z,35.37
2017-12-02T08:43:33.285Z,35.47
2017-12-02T08:46:01.545Z,35.77
2017-12-02T08:48:29.790Z,36.30
2017-12-02T08:50:57.271Z,34.67
2017-12-02T08:53:24.753Z,36.60
2017-12-02T08:55:52.989Z,34.77
2017-12-02T08:58:20.486Z,35.50
2017-12-02T09:00:49.752Z,34.77
2017-12-02T09:03:17.242Z,35.17
2017-12-02T09:05:45.516Z,36.60
2017-12-02T09:08:14.798Z,34.50
2017-12-02T09:10:42.282Z,37.00
2017-12-02T09:13:10.595Z,37.97
2017-12-02T09:15:38.074Z,37.50
2017-12-02T09:18:05.985Z,39.20
2017-12-02T09:20:34.235Z,36.97
2017-12-02T09:23:01.735Z,35.20
2017-12-02T09:25:30.143Z,38.10
2017-12-02T09:27:57.635Z,39.20
2017-12-02T09:30:25.197Z,37.83
2017-12-02T09:32:53.447Z,39.33
2017-12-02T09:35:20.942Z,38.10
2017-12-02T09:37:48.407Z,39.00
2017-12-02T09:40:15.891Z,39.80
2017-12-02T09:42:43.390Z,39.60
2017-12-02T09:45:10.885Z,38.17
2017-12-02T09:47:39.147Z,41.07
2017-12-02T09:50:07.392Z,38.53
2017-12-02T09:52:34.866Z,45.20
2017-12-02T09:55:02.367Z,40.83
2017-12-02T09:57:30.611Z,39.40
2017-12-02T09:59:58.123Z,39.73
2017-12-02T10:02:25.619Z,44.17
2017-12-02T10:04:53.096Z,39.20
2017-12-02T10:07:20.580Z,43.77
2017-12-02T10:09:48.084Z,37.10
2017-12-02T10:12:15.602Z,37.90
2017-12-02T10:14:43.119Z,33.67
2017-12-02T10:17:10.597Z,40.00
2017-12-02T10:19:38.866Z,36.73
2017-12-02T10:22:06.333Z,39.13
2017-12-02T10:24:34.585Z,36.80
2017-12-02T10:27:02.070Z,39.43
2017-12-02T10:29:30.310Z,36.40
2017-12-02T10:31:57.823Z,38.27
2017-12-02T10:34:26.109Z,37.53
2017-12-02T10:36:53.615Z,37.50
2017-12-02T10:39:21.087Z,36.70
2017-12-02T10:41:48.589Z,37.60
2017-12-02T10:44:16.080Z,35.73
2017-12-02T10:46:43.611Z,38.00
2017-12-02T10:49:11.137Z,40.00
2017-12-02T10:51:39.379Z,35.60
2017-12-02T10:54:06.861Z,39.20
2017-12-02T10:56:34.407Z,38.37
2017-12-02T10:59:01.895Z,37.33
2017-12-02T11:01:30.167Z,38.50
2017-12-02T11:03:58.412Z,38.30
2017-12-02T11:06:25.892Z,38.10
2017-12-02T11:08:54.147Z,37.83
2017-12-02T11:11:21.620Z,38.83
2017-12-02T11:13:49.129Z,38.03
2017-12-02T11:16:16.604Z,39.80
2017-12-02T11:18:44.079Z,37.73
2017-12-02T11:21:11.571Z,40.40
2017-12-02T11:23:39.807Z,39.43
2017-12-02T11:26:07.319Z,40.20
2017-12-02T11:28:34.798Z,40.27
2017-12-02T11:31:02.280Z,40.17
2017-12-02T11:33:29.766Z,43.30
2017-12-02T11:35:57.261Z,41.00
2017-12-02T11:38:24.824Z,39.70
2017-12-02T11:40:52.315Z,39.83
2017-12-02T11:43:19.783Z,39.83
2017-12-02T11:45:47.271Z,42.80
2017-12-02T11:48:15.527Z,41.27
2017-12-02T11:50:43.024Z,40.00
2017-12-02T11:53:10.526Z,38.90
2017-12-02T11:55:37.992Z,38.30
2017-12-02T11:58:05.484Z,38.03
2017-12-02T12:00:33.715Z,38.93
2017-12-02T12:03:01.347Z,39.80
2017-12-02T12:05:28.827Z,37.93
2017-12-02T12:07:56.540Z,39.20
2017-12-02T12:10:24.841Z,39.70
2017-12-02T12:12:52.451Z,37.17
2017-12-02T12:15:19.971Z,37.03
2017-12-02T12:17:47.464Z,36.87
2017-12-02T12:20:14.959Z,37.40
2017-12-02T12:22:43.226Z,33.50
2017-12-02T12:25:11.554Z,34.80
2017-12-02T12:27:39.162Z,36.97
2017-12-02T12:30:07.462Z,35.63
2017-12-02T12:32:35.018Z,35.10
2017-12-02T12:36:22.020Z,38.93
2017-12-02T12:38:50.426Z,38.87
2017-12-02T12:41:17.967Z,39.13
2017-12-02T12:43:46.280Z,40.20
2017-12-02T12:46:13.814Z,40.70
2017-12-02T12:48:42.124Z,41.47
2017-12-02T12:51:09.638Z,39.63
2017-12-02T12:53:37.934Z,37.43
2017-12-02T12:56:05.420Z,37.40
2017-12-02T12:58:32.907Z,36.27
2017-12-02T13:01:00.373Z,38.83
2017-12-02T13:03:27.868Z,38.20
2017-12-02T13:05:55.495Z,40.90
2017-12-02T13:08:22.935Z,41.80
2017-12-02T13:10:50.420Z,40.97
2017-12-02T13:13:18.668Z,45.33
2017-12-02T13:15:46.132Z,41.83
2017-12-02T13:18:13.624Z,41.40
2017-12-02T13:20:41.855Z,42.60
2017-12-02T13:23:09.347Z,41.80
2017-12-02T13:25:36.832Z,42.10
2017-12-02T13:28:04.318Z,40.70
2017-12-02T13:30:31.794Z,38.40
2017-12-02T13:32:59.295Z,39.70
2017-12-02T13:35:27.539Z,41.30
2017-12-02T13:37:55.008Z,39.90
2017-12-02T13:40:22.534Z,41.97
2017-12-02T13:42:50.018Z,43.07
2017-12-02T13:45:17.491Z,41.07
2017-12-02T13:47:45.746Z,40.10
2017-12-02T13:50:13.220Z,37.03
2017-12-02T13:52:40.699Z,39.33
2017-12-02T13:55:08.962Z,37.20
2017-12-02T13:57:37.203Z,41.23
2017-12-02T14:00:04.672Z,35.80
2017-12-02T14:02:32.259Z,38.63
2017-12-02T14:05:00.503Z,35.87
2017-12-02T14:07:29.115Z,34.30
2017-12-02T14:09:57.359Z,35.47
2017-12-02T14:12:24.826Z,38.80
2017-12-02T14:14:52.314Z,37.53
2017-12-02T14:17:20.617Z,32.07
2017-12-02T14:19:48.125Z,36.93
2017-12-02T14:22:15.622Z,36.47
2017-12-02T14:24:43.179Z,34.10
2017-12-02T14:27:10.694Z,33.20
2017-12-02T14:29:38.167Z,34.93
2017-12-02T14:32:05.712Z,33.17
2017-12-02T14:34:33.214Z,33.63
2017-12-02T14:37:01.476Z,33.87
2017-12-02T14:39:28.991Z,34.53
2017-12-02T14:41:56.616Z,32.67
2017-12-02T14:44:24.148Z,33.87
2017-12-02T14:46:51.628Z,33.77
2017-12-02T14:49:19.872Z,34.00
2017-12-02T14:51:47.401Z,31.77
2017-12-02T14:54:14.871Z,35.43
2017-12-02T14:56:42.387Z,34.70
2017-12-02T14:59:09.871Z,33.87
2017-12-02T15:01:37.362Z,35.07
2017-12-02T15:04:04.844Z,33.20
2017-12-02T15:06:33.211Z,32.40
2017-12-02T15:09:00.708Z,32.80
2017-12-02T15:11:28.179Z,30.57
2017-12-02T15:13:55.664Z,30.20
2017-12-02T15:16:23.148Z,32.03
2017-12-02T15:18:51.436Z,29.67
2017-12-02T15:21:19.695Z,29.13
2017-12-02T15:23:47.167Z,27.30
2017-12-02T15:26:15.403Z,27.33
2017-12-02T15:28:42.940Z,28.97
2017-12-02T15:31:11.131Z,28.40
2017-12-02T15:33:38.668Z,29.00
2017-12-02T15:36:06.196Z,40.40
2017-12-02T15:38:34.435Z,30.03
2017-12-02T15:41:01.919Z,33.30
2017-12-02T15:43:29.384Z,35.40
2017-12-02T15:45:57.638Z,33.00
2017-12-02T15:48:25.108Z,32.40
2017-12-02T15:50:52.574Z,33.73
2017-12-02T15:53:20.827Z,34.40
2017-12-02T15:55:48.303Z,32.07
2017-12-02T15:58:15.802Z,32.70
2017-12-02T16:00:43.328Z,34.43
2017-12-02T16:03:10.799Z,34.77
2017-12-02T16:05:39.050Z,36.20
2017-12-02T16:08:06.523Z,35.40
2017-12-02T16:10:34.812Z,35.80
2017-12-02T16:13:03.050Z,35.37
2017-12-02T16:15:31.291Z,35.80
2017-12-02T16:17:58.776Z,37.30
2017-12-02T16:20:26.244Z,35.37
2017-12-02T16:22:53.743Z,34.77
2017-12-02T16:25:21.212Z,37.20
2017-12-02T16:27:48.708Z,36.47
2017-12-02T16:30:16.299Z,36.40
2017-12-02T16:32:44.551Z,36.53
2017-12-02T16:35:12.073Z,34.90
2017-12-02T16:37:39.542Z,36.20
2017-12-02T16:40:07.011Z,36.87
2017-12-02T16:42:34.516Z,34.30
2017-12-02T16:45:02.018Z,32.10
2017-12-02T16:47:29.507Z,34.73
2017-12-02T16:49:56.988Z,29.27
2017-12-02T16:52:25.232Z,31.83
2017-12-02T16:54:52.721Z,31.87
2017-12-02T16:57:20.985Z,33.70
2017-12-02T16:59:48.471Z,34.43
2017-12-02T17:02:16.706Z,33.03
2017-12-02T17:04:44.182Z,31.07
2017-12-02T17:07:11.695Z,31.20
2017-12-02T17:09:39.169Z,30.00
2017-12-02T17:12:06.659Z,31.23
2017-12-02T17:14:34.127Z,32.13
2017-12-02T17:17:02.370Z,30.80
2017-12-02T17:19:29.856Z,29.67
2017-12-02T17:21:58.103Z,31.07
2017-12-02T17:24:25.605Z,31.60
2017-12-02T17:26:53.852Z,30.47
2017-12-02T17:29:21.377Z,28.20
2017-12-02T17:31:48.920Z,27.67
2017-12-02T17:34:16.386Z,29.13
2017-12-02T17:36:43.883Z,28.77
2017-12-02T17:39:11.398Z,29.50
2017-12-02T17:41:38.893Z,29.87
2017-12-02T17:44:06.382Z,30.87
2017-12-02T17:46:34.647Z,29.50
2017-12-02T17:49:02.147Z,25.63
2017-12-02T17:51:29.619Z,26.50
2017-12-02T17:53:57.099Z,28.50
2017-12-02T17:56:24.599Z,31.10
2017-12-02T17:58:52.835Z,27.60
2017-12-02T18:01:20.399Z,27.03
2017-12-02T18:03:47.916Z,27.97
2017-12-02T18:06:15.412Z,26.07
2017-12-02T18:08:42.919Z,27.07
2017-12-02T18:11:10.390Z,27.60
2017-12-02T18:13:37.891Z,24.77
2017-12-02T18:16:05.375Z,33.00
2017-12-02T18:18:33.619Z,28.00
2017-12-02T18:21:01.112Z,28.20
2017-12-02T18:23:29.347Z,30.37
2017-12-02T18:25:56.877Z,26.83
2017-12-02T18:28:24.354Z,28.57
2017-12-02T18:30:51.822Z,29.23
2017-12-02T18:33:19.456Z,29.53
2017-12-02T18:35:46.923Z,29.90
2017-12-02T18:38:14.456Z,29.47
2017-12-02T18:40:41.948Z,29.73
2017-12-02T18:43:09.419Z,32.77
2017-12-02T18:45:36.907Z,28.67
2017-12-02T18:48:04.382Z,29.03
2017-12-02T18:50:32.639Z,27.70
2017-12-02T18:53:00.154Z,29.83
2017-12-02T18:55:27.677Z,31.43
2017-12-02T18:57:55.953Z,31.87
2017-12-02T19:00:24.215Z,32.43
2017-12-02T19:02:51.743Z,30.30
2017-12-02T19:05:19.271Z,27.40
2017-12-02T19:07:46.748Z,32.07
2017-12-02T19:10:14.234Z,32.63
2017-12-02T19:12:41.711Z,29.97
2017-12-02T19:15:09.979Z,29.43
2017-12-02T19:17:37.446Z,32.00
2017-12-02T19:20:05.731Z,29.23
2017-12-02T19:22:33.280Z,29.87
2017-12-02T19:25:01.523Z,36.77
2017-12-02T19:27:29.015Z,27.90
2017-12-02T19:29:57.275Z,28.10
2017-12-02T19:32:24.747Z,32.20
2017-12-02T19:34:52.236Z,31.17
2017-12-02T19:37:19.715Z,30.90
2017-12-02T19:39:47.217Z,30.43
2017-12-02T19:42:14.694Z,31.00
2017-12-02T19:44:43.004Z,29.77
2017-12-02T19:47:10.495Z,27.67
2017-12-02T19:49:37.979Z,27.77
2017-12-02T19:52:06.247Z,26.87
2017-12-02T19:54:33.727Z,28.60
2017-12-02T19:57:01.972Z,29.67
2017-12-02T19:59:29.455Z,40.70
2017-12-02T20:01:57.725Z,29.97
2017-12-02T20:04:26.048Z,29.00
2017-12-02T20:06:54.247Z,29.50
2017-12-02T20:09:21.728Z,30.83
2017-12-02T20:11:49.218Z,27.07
2017-12-02T20:14:16.702Z,26.77
2017-12-02T20:16:44.199Z,26.47
2017-12-02T20:19:11.671Z,27.97
2017-12-02T20:21:39.948Z,26.90
2017-12-02T20:24:08.320Z,27.83
2017-12-02T20:26:36.584Z,27.43
2017-12-02T20:29:04.103Z,31.93
2017-12-02T20:31:31.574Z,29.63
2017-12-02T20:33:59.824Z,26.80
2017-12-02T20:36:27.327Z,28.30
2017-12-02T20:38:54.808Z,28.97
2017-12-02T20:41:23.106Z,27.33
2017-12-02T20:43:50.576Z,22.73
2017-12-02T20:46:18.055Z,26.97
2017-12-02T20:48:45.540Z,28.23
2017-12-02T20:51:13.122Z,27.90
2017-12-02T20:53:41.386Z,27.03
2017-12-02T20:56:08.860Z,25.97
2017-12-02T20:58:37.099Z,28.00
2017-12-02T21:01:04.591Z,26.40
2017-12-02T21:03:32.826Z,25.77
2017-12-02T21:06:00.329Z,25.50
2017-12-02T21:08:28.567Z,26.17
2017-12-02T21:10:56.046Z,26.67
2017-12-02T21:13:23.536Z,24.20
2017-12-02T21:15:51.849Z,22.87
2017-12-02T21:18:20.051Z,24.30
2017-12-02T21:20:47.527Z,22.87
2017-12-02T21:23:15.767Z,22.60
2017-12-02T21:25:43.256Z,23.47
2017-12-02T21:28:10.722Z,27.30
2017-12-02T21:30:38.975Z,25.13
2017-12-02T21:33:06.446Z,22.00
2017-12-02T21:35:34.692Z,21.20
2017-12-02T21:38:02.182Z,22.40
2017-12-02T21:40:29.653Z,22.57
2017-12-02T21:42:57.183Z,22.40
2017-12-02T21:45:24.659Z,23.00
2017-12-02T21:47:52.126Z,23.93
2017-12-02T21:50:20.403Z,24.17
2017-12-02T21:52:48.638Z,25.97
2017-12-02T21:55:16.131Z,24.97
2017-12-02T21:57:44.383Z,27.00
2017-12-02T22:00:11.908Z,27.30
2017-12-02T22:02:40.145Z,28.17
2017-12-02T22:05:08.388Z,27.13
2017-12-02T22:07:35.891Z,26.50
2017-12-02T22:10:04.138Z,26.40
2017-12-02T22:12:31.602Z,26.30
2017-12-02T22:14:59.106Z,26.10
2017-12-02T22:17:26.634Z,27.60
2017-12-02T22:19:54.091Z,27.10
2017-12-02T22:22:22.335Z,25.73
2017-12-02T22:24:49.803Z,26.00
2017-12-02T22:27:18.815Z,26.53
2017-12-02T22:29:47.055Z,26.60
2017-12-02T22:32:14.555Z,25.10
2017-12-02T22:34:42.791Z,25.10
2017-12-02T22:37:10.272Z,25.63
2017-12-02T22:39:39.263Z,25.70
2017-12-02T22:42:06.743Z,25.33
2017-12-02T22:44:35.006Z,24.13
2017-12-02T22:47:03.254Z,23.77
2017-12-02T22:49:30.741Z,23.23
2017-12-02T22:51:58.228Z,24.53
2017-12-02T22:54:25.711Z,22.60
2017-12-02T22:56:53.212Z,22.97
2017-12-02T22:59:20.690Z,24.50
2017-12-02T23:01:48.938Z,24.90
2017-12-02T23:04:16.445Z,24.83
2017-12-02T23:06:43.916Z,23.67
2017-12-02T23:09:11.425Z,24.43
2017-12-02T23:11:38.902Z,25.53
2017-12-02T23:14:07.187Z,26.03
2017-12-02T23:16:34.684Z,22.87
2017-12-02T23:19:02.160Z,24.97
2017-12-02T23:21:29.651Z,25.63
2017-12-02T23:23:57.941Z,25.10
2017-12-02T23:26:25.377Z,24.47
2017-12-02T23:28:53.630Z,22.73
2017-12-02T23:31:21.103Z,23.10
2017-12-02T23:33:48.599Z,22.70
2017-12-02T23:36:16.076Z,24.77
2017-12-02T23:38:43.555Z,23.30
2017-12-02T23:41:11.056Z,21.73
2017-12-02T23:43:38.543Z,20.33
2017-12-02T23:46:06.035Z,22.17
2017-12-02T23:48:33.511Z,22.00
2017-12-02T23:51:00.982Z,22.17
2017-12-02T23:53:29.235Z,22.10
2017-12-02T23:55:56.714Z,20.17
2017-12-02T23:58:24.973Z,20.40
